createdAt,value
2018-09-30T00:02:23.915Z,99.90
2018-09-30T00:04:53.718Z,99.90
2018-09-30T00:07:22.758Z,99.90
2018-09-30T00:09:51.730Z,99.90
2018-09-30T00:12:20.753Z,99.90
2018-09-30T00:14:49.841Z,99.90
2018-09-30T00:17:18.895Z,99.90
2018-09-30T00:19:47.979Z,99.90
2018-09-30T00:22:16.983Z,99.90
2018-09-30T00:24:51.388Z,99.90
2018-09-30T00:27:21.789Z,99.90
2018-09-30T00:29:50.822Z,99.90
2018-09-30T00:32:19.800Z,99.90
2018-09-30T00:34:48.830Z,99.90
2018-09-30T00:37:17.904Z,99.90
2018-09-30T00:39:46.954Z,99.90
2018-09-30T00:42:16.117Z,99.90
2018-09-30T00:44:45.236Z,99.90
2018-09-30T00:47:14.327Z,99.90
2018-09-30T00:49:43.370Z,99.90
2018-09-30T00:52:12.351Z,99.90
2018-09-30T00:54:41.384Z,99.90
2018-09-30T00:57:10.443Z,99.90
2018-09-30T00:59:39.798Z,99.90
2018-09-30T01:02:09.340Z,99.90
2018-09-30T01:04:38.358Z,99.90
2018-09-30T01:07:07.846Z,99.90
2018-09-30T01:09:36.949Z,99.90
2018-09-30T01:12:06.035Z,99.90
2018-09-30T01:14:35.175Z,99.90
2018-09-30T01:17:04.133Z,99.90
2018-09-30T01:19:34.217Z,99.90
2018-09-30T01:22:03.243Z,99.90
2018-09-30T01:24:32.274Z,99.90
2018-09-30T01:27:01.267Z,99.90
2018-09-30T01:29:30.249Z,99.90
2018-09-30T01:31:59.347Z,99.90
2018-09-30T01:34:28.490Z,99.90
2018-09-30T01:36:57.503Z,99.90
2018-09-30T01:39:26.458Z,99.90
2018-09-30T01:41:55.567Z,99.90
2018-09-30T01:44:25.128Z,99.90
2018-09-30T01:46:54.330Z,99.90
2018-09-30T01:49:23.294Z,99.90
2018-09-30T01:52:03.486Z,99.90
2018-09-30T01:54:32.570Z,99.90
2018-09-30T01:57:02.538Z,99.90
2018-09-30T01:59:31.676Z,99.90
2018-09-30T02:02:01.119Z,99.90
2018-09-30T02:04:30.130Z,99.90
2018-09-30T02:06:59.166Z,99.90
2018-09-30T02:09:34.702Z,99.90
2018-09-30T02:12:03.751Z,99.90
2018-09-30T02:14:33.031Z,99.90
2018-09-30T02:17:02.113Z,99.90
2018-09-30T02:19:31.309Z,99.90
2018-09-30T02:22:00.359Z,99.90
2018-09-30T02:24:29.459Z,99.90
2018-09-30T02:26:59.049Z,99.90
2018-09-30T02:31:58.177Z,99.90
2018-09-30T02:34:27.220Z,99.90
2018-09-30T02:36:56.302Z,99.90
2018-09-30T02:39:25.318Z,99.90
2018-09-30T02:41:54.291Z,99.90
2018-09-30T02:44:23.297Z,99.90
2018-09-30T02:46:52.504Z,99.90
2018-09-30T02:49:21.538Z,99.90
2018-09-30T02:51:50.502Z,99.90
2018-09-30T02:54:19.590Z,99.90
2018-09-30T02:56:48.929Z,99.90
2018-09-30T02:59:18.013Z,99.90
2018-09-30T03:01:47.040Z,99.90
2018-09-30T03:04:16.118Z,99.90
2018-09-30T03:06:50.421Z,99.90
2018-09-30T03:09:20.354Z,99.90
2018-09-30T03:11:49.398Z,99.90
2018-09-30T03:14:18.694Z,99.90
2018-09-30T03:16:47.713Z,99.90
2018-09-30T03:19:17.255Z,99.90
2018-09-30T03:21:46.272Z,99.90
2018-09-30T03:24:15.506Z,99.90
2018-09-30T03:26:44.477Z,99.90
2018-09-30T03:29:13.486Z,99.90
2018-09-30T03:31:42.467Z,99.90
2018-09-30T03:34:11.629Z,99.90
2018-09-30T03:36:40.711Z,99.90
2018-09-30T03:39:10.025Z,99.90
2018-09-30T03:41:39.092Z,99.90
2018-09-30T03:44:08.353Z,99.90
2018-09-30T03:46:37.354Z,99.90
2018-09-30T03:49:06.367Z,99.90
2018-09-30T03:51:35.515Z,99.90
2018-09-30T03:54:04.583Z,99.90
2018-09-30T03:56:34.419Z,99.90
2018-09-30T03:59:03.528Z,99.90
2018-09-30T04:01:32.511Z,99.90
2018-09-30T04:04:01.559Z,99.90
2018-09-30T04:06:30.670Z,99.90
2018-09-30T04:09:00.460Z,99.90
2018-09-30T04:11:29.513Z,99.90
2018-09-30T04:13:58.564Z,99.90
2018-09-30T04:16:27.823Z,99.90
2018-09-30T04:18:56.990Z,99.90
2018-09-30T04:21:26.071Z,99.90
2018-09-30T04:24:05.411Z,99.90
2018-09-30T04:26:34.434Z,99.90
2018-09-30T04:29:03.673Z,99.90
2018-09-30T04:31:32.986Z,99.90
2018-09-30T04:34:02.416Z,99.90
2018-09-30T04:36:32.693Z,99.90
2018-09-30T04:39:01.877Z,99.90
2018-09-30T04:41:31.670Z,99.90
2018-09-30T04:44:01.405Z,99.90
2018-09-30T04:46:30.445Z,99.90
2018-09-30T04:48:59.633Z,99.90
2018-09-30T04:51:28.787Z,99.90
2018-09-30T04:53:57.788Z,99.90
2018-09-30T04:56:26.945Z,99.90
2018-09-30T04:58:56.206Z,99.90
2018-09-30T05:01:25.278Z,99.90
2018-09-30T05:03:55.123Z,99.90
2018-09-30T05:06:24.123Z,99.90
2018-09-30T05:08:53.374Z,99.90
2018-09-30T05:11:22.473Z,99.90
2018-09-30T05:13:52.036Z,99.90
2018-09-30T05:16:21.032Z,99.90
2018-09-30T05:18:50.040Z,99.90
2018-09-30T05:21:19.143Z,99.90
2018-09-30T05:23:48.262Z,99.90
2018-09-30T05:26:17.354Z,99.90
2018-09-30T05:28:46.293Z,99.90
2018-09-30T05:31:16.117Z,99.90
2018-09-30T05:33:45.185Z,99.90
2018-09-30T05:36:14.165Z,99.90
2018-09-30T05:38:43.629Z,99.90
2018-09-30T05:41:12.593Z,99.90
2018-09-30T05:43:41.546Z,99.90
2018-09-30T05:46:10.622Z,99.90
2018-09-30T05:48:39.937Z,99.90
2018-09-30T05:51:08.946Z,99.90
2018-09-30T05:53:38.000Z,99.90
2018-09-30T05:56:07.279Z,99.90
2018-09-30T05:58:36.319Z,99.90
2018-09-30T06:01:06.009Z,99.90
2018-09-30T06:03:35.362Z,99.90
2018-09-30T06:06:04.316Z,99.90
2018-09-30T06:08:33.455Z,99.90
2018-09-30T06:11:02.515Z,99.90
2018-09-30T06:13:31.668Z,99.90
2018-09-30T06:16:00.708Z,99.90
2018-09-30T06:18:29.827Z,99.90
2018-09-30T06:20:59.295Z,99.90
2018-09-30T06:23:28.459Z,99.90
2018-09-30T06:25:57.531Z,99.90
2018-09-30T06:28:26.541Z,99.90
2018-09-30T06:30:56.285Z,99.90
2018-09-30T06:33:25.618Z,99.90
2018-09-30T06:35:54.649Z,99.90
2018-09-30T06:38:24.734Z,99.90
2018-09-30T06:40:53.796Z,99.90
2018-09-30T06:43:22.852Z,99.90
2018-09-30T06:45:52.661Z,99.90
2018-09-30T06:48:21.731Z,99.90
2018-09-30T06:50:51.176Z,99.90
2018-09-30T06:53:20.256Z,99.90
2018-09-30T06:55:49.238Z,99.90
2018-09-30T06:58:18.366Z,99.90
2018-09-30T07:00:47.362Z,99.90
2018-09-30T07:03:16.786Z,99.90
2018-09-30T07:05:46.341Z,99.90
2018-09-30T07:08:16.452Z,99.90
2018-09-30T07:10:45.771Z,99.90
2018-09-30T07:13:14.852Z,99.90
2018-09-30T07:15:43.816Z,99.90
2018-09-30T07:18:12.906Z,99.90
2018-09-30T07:20:41.977Z,99.90
2018-09-30T07:23:10.993Z,99.90
2018-09-30T07:25:40.033Z,99.90
2018-09-30T07:28:09.038Z,99.90
2018-09-30T07:30:38.022Z,99.90
2018-09-30T07:33:06.990Z,99.90
2018-09-30T07:35:35.965Z,99.90
2018-09-30T07:38:04.945Z,99.90
2018-09-30T07:40:33.921Z,99.90
2018-09-30T07:43:02.941Z,99.90
2018-09-30T07:45:31.932Z,99.90
2018-09-30T07:48:00.960Z,99.90
2018-09-30T07:50:29.974Z,99.90
2018-09-30T07:52:59.086Z,99.90
2018-09-30T07:55:28.126Z,99.90
2018-09-30T07:57:57.091Z,99.90
2018-09-30T08:00:26.110Z,99.90
2018-09-30T08:02:55.092Z,99.90
2018-09-30T08:05:24.162Z,99.90
2018-09-30T08:07:53.379Z,99.90
2018-09-30T08:10:22.382Z,99.90
2018-09-30T08:12:51.371Z,99.90
2018-09-30T08:15:20.390Z,99.90
2018-09-30T08:17:49.376Z,99.90
2018-09-30T08:20:18.770Z,99.90
2018-09-30T08:22:47.750Z,99.90
2018-09-30T08:25:16.799Z,99.90
2018-09-30T08:27:45.769Z,99.90
2018-09-30T08:30:14.763Z,99.90
2018-09-30T08:32:43.793Z,99.90
2018-09-30T08:35:12.794Z,99.90
2018-09-30T08:37:47.117Z,99.90
2018-09-30T08:40:20.343Z,99.90
2018-09-30T08:42:49.456Z,99.90
2018-09-30T08:45:18.669Z,99.90
2018-09-30T08:47:47.750Z,99.90
2018-09-30T08:50:16.689Z,99.90
2018-09-30T08:52:45.696Z,99.90
2018-09-30T08:55:14.710Z,99.90
2018-09-30T08:57:43.691Z,99.90
2018-09-30T09:00:12.733Z,99.90
2018-09-30T09:02:41.855Z,99.90
2018-09-30T09:05:10.929Z,99.90
2018-09-30T09:07:39.940Z,99.90
2018-09-30T09:10:08.926Z,99.90
2018-09-30T09:12:37.964Z,99.90
2018-09-30T09:15:07.139Z,99.90
2018-09-30T09:17:36.216Z,99.90
2018-09-30T09:20:05.437Z,99.90
2018-09-30T09:22:34.438Z,99.80
2018-09-30T09:25:03.385Z,99.90
2018-09-30T09:27:32.362Z,99.30
2018-09-30T09:30:01.472Z,99.10
2018-09-30T09:32:34.705Z,98.50
2018-09-30T09:35:03.892Z,98.80
2018-09-30T09:37:32.962Z,97.70
2018-09-30T09:40:02.005Z,98.90
2018-09-30T09:42:31.003Z,97.80
2018-09-30T09:45:00.103Z,97.90
2018-09-30T09:47:29.087Z,99.40
2018-09-30T09:49:58.406Z,97.90
2018-09-30T09:52:27.585Z,97.90
2018-09-30T09:54:56.563Z,98.00
2018-09-30T09:57:25.531Z,97.80
2018-09-30T09:59:54.541Z,98.30
2018-09-30T10:02:23.502Z,99.10
2018-09-30T10:04:52.585Z,97.20
2018-09-30T10:07:21.552Z,97.80
2018-09-30T10:09:50.563Z,96.40
2018-09-30T10:12:19.551Z,96.70
2018-09-30T10:14:48.561Z,97.70
2018-09-30T10:17:18.535Z,96.10
2018-09-30T10:19:47.518Z,96.30
2018-09-30T10:22:16.588Z,96.40
2018-09-30T10:24:46.233Z,94.80
2018-09-30T10:27:15.306Z,95.50
2018-09-30T10:29:44.287Z,95.00
2018-09-30T10:32:13.261Z,94.40
2018-09-30T10:34:42.281Z,93.80
2018-09-30T10:37:11.303Z,92.70
2018-09-30T10:39:40.361Z,92.30
2018-09-30T10:42:09.298Z,92.50
2018-09-30T10:44:38.347Z,92.00
2018-09-30T10:47:07.453Z,93.10
2018-09-30T10:49:36.556Z,92.60
2018-09-30T10:52:05.529Z,92.40
2018-09-30T10:54:34.519Z,91.70
2018-09-30T10:57:03.655Z,91.60
2018-09-30T10:59:32.582Z,91.10
2018-09-30T11:02:01.572Z,91.40
2018-09-30T11:04:30.663Z,90.30
2018-09-30T11:06:59.741Z,90.30
2018-09-30T11:09:28.771Z,90.60
2018-09-30T11:11:57.794Z,91.10
2018-09-30T11:14:26.874Z,89.70
2018-09-30T11:16:55.931Z,87.20
2018-09-30T11:19:25.061Z,91.10
2018-09-30T11:21:54.066Z,86.20
2018-09-30T11:24:23.115Z,81.70
2018-09-30T11:26:52.165Z,83.30
2018-09-30T11:29:21.166Z,82.80
2018-09-30T11:31:50.199Z,80.20
2018-09-30T11:34:19.123Z,76.60
2018-09-30T11:36:48.104Z,76.10
2018-09-30T11:39:17.087Z,76.50
2018-09-30T11:41:46.125Z,75.90
2018-09-30T11:44:15.150Z,78.40
2018-09-30T11:46:44.075Z,72.90
2018-09-30T11:49:13.100Z,74.30
2018-09-30T11:51:42.266Z,75.00
2018-09-30T11:54:11.301Z,73.10
2018-09-30T11:56:40.385Z,73.00
2018-09-30T11:59:09.716Z,71.20
2018-09-30T12:01:38.863Z,67.20
2018-09-30T12:04:07.884Z,69.00
2018-09-30T12:06:36.859Z,69.50
2018-09-30T12:09:07.291Z,67.30
2018-09-30T12:11:36.599Z,67.00
2018-09-30T12:14:05.678Z,67.30
2018-09-30T12:16:34.761Z,67.80
2018-09-30T12:19:03.871Z,66.50
2018-09-30T12:21:32.944Z,66.20
2018-09-30T12:24:02.028Z,68.90
2018-09-30T12:26:31.062Z,66.50
2018-09-30T12:29:00.106Z,65.00
2018-09-30T12:31:29.091Z,65.50
2018-09-30T12:33:58.090Z,63.90
2018-09-30T12:36:27.090Z,64.20
2018-09-30T12:38:56.128Z,65.20
2018-09-30T12:41:25.123Z,64.40
2018-09-30T12:43:54.203Z,61.70
2018-09-30T12:46:23.226Z,63.30
2018-09-30T12:48:52.235Z,63.00
2018-09-30T12:51:21.264Z,62.90
2018-09-30T12:53:50.456Z,64.30
2018-09-30T12:56:19.397Z,62.90
2018-09-30T12:58:48.359Z,65.80
2018-09-30T13:01:17.481Z,66.80
2018-09-30T13:03:46.515Z,67.90
2018-09-30T13:06:15.441Z,69.20
2018-09-30T13:08:44.436Z,68.40
2018-09-30T13:11:13.555Z,66.50
2018-09-30T13:13:42.594Z,67.20
2018-09-30T13:16:11.554Z,68.80
2018-09-30T13:18:40.571Z,69.30
2018-09-30T13:21:09.622Z,69.20
2018-09-30T13:23:38.614Z,70.90
2018-09-30T13:26:07.654Z,72.00
2018-09-30T13:28:36.666Z,72.40
2018-09-30T13:31:05.667Z,69.50
2018-09-30T13:33:34.716Z,70.00
2018-09-30T13:36:03.641Z,70.30
2018-09-30T13:38:32.589Z,70.00
2018-09-30T13:41:01.748Z,71.20
2018-09-30T13:43:30.605Z,70.40
2018-09-30T13:45:59.616Z,70.10
2018-09-30T13:48:28.612Z,72.80
2018-09-30T13:50:57.624Z,71.90
2018-09-30T13:53:26.651Z,70.90
2018-09-30T13:55:55.611Z,72.80
2018-09-30T13:58:24.786Z,71.10
2018-09-30T14:00:53.650Z,71.40
2018-09-30T14:03:22.657Z,71.10
2018-09-30T14:05:51.598Z,72.10
2018-09-30T14:08:20.597Z,71.30
2018-09-30T14:10:49.601Z,71.40
2018-09-30T14:13:18.682Z,71.90
2018-09-30T14:15:47.686Z,71.50
2018-09-30T14:18:16.657Z,71.80
2018-09-30T14:20:45.634Z,71.50
2018-09-30T14:23:14.686Z,72.40
2018-09-30T14:25:43.646Z,73.40
2018-09-30T14:28:12.655Z,70.80
2018-09-30T14:30:41.701Z,71.30
2018-09-30T14:33:10.730Z,71.80
2018-09-30T14:35:39.719Z,71.50
2018-09-30T14:38:08.762Z,72.30
2018-09-30T14:40:37.771Z,72.30
2018-09-30T14:43:06.830Z,72.10
2018-09-30T14:45:35.798Z,70.70
2018-09-30T14:48:04.987Z,71.00
2018-09-30T14:50:33.965Z,71.10
2018-09-30T14:53:02.937Z,71.00
2018-09-30T14:55:31.939Z,71.20
2018-09-30T14:58:00.911Z,70.60
2018-09-30T15:00:29.942Z,73.80
2018-09-30T15:02:58.926Z,71.20
2018-09-30T15:05:27.902Z,70.50
2018-09-30T15:07:56.962Z,70.80
2018-09-30T15:10:25.893Z,71.30
2018-09-30T15:12:54.928Z,71.50
2018-09-30T15:15:24.230Z,70.40
2018-09-30T15:17:53.202Z,71.00
2018-09-30T15:20:22.163Z,70.20
2018-09-30T15:22:51.143Z,70.30
2018-09-30T15:25:20.179Z,71.00
2018-09-30T15:27:49.103Z,70.80
2018-09-30T15:30:18.055Z,72.20
2018-09-30T15:32:47.027Z,71.20
2018-09-30T15:35:16.110Z,71.10
2018-09-30T15:37:48.838Z,70.80
2018-09-30T15:40:17.835Z,69.00
2018-09-30T15:42:46.876Z,69.60
2018-09-30T15:45:15.879Z,70.00
2018-09-30T15:50:24.240Z,70.70
2018-09-30T15:52:53.185Z,69.30
2018-09-30T15:55:22.146Z,70.00
2018-09-30T15:57:51.182Z,69.90
2018-09-30T16:00:20.231Z,71.60
2018-09-30T16:02:49.230Z,71.70
2018-09-30T16:05:18.282Z,74.30
2018-09-30T16:07:47.291Z,72.00
2018-09-30T16:10:16.338Z,73.00
2018-09-30T16:12:45.397Z,73.10
2018-09-30T16:15:14.423Z,74.40
2018-09-30T16:17:43.650Z,73.30
2018-09-30T16:20:12.878Z,74.90
2018-09-30T16:22:41.888Z,76.60
2018-09-30T16:25:10.903Z,75.70
2018-09-30T16:27:39.946Z,76.00
2018-09-30T16:30:08.907Z,76.30
2018-09-30T16:32:37.961Z,76.50
2018-09-30T16:35:07.032Z,78.10
2018-09-30T16:37:36.119Z,77.50
2018-09-30T16:40:05.343Z,78.00
2018-09-30T16:42:34.393Z,78.40
2018-09-30T16:45:03.411Z,78.30
2018-09-30T16:47:32.386Z,81.60
2018-09-30T16:50:01.363Z,80.70
2018-09-30T16:52:30.453Z,80.70
2018-09-30T16:54:59.454Z,80.50
2018-09-30T16:57:28.742Z,79.60
2018-09-30T16:59:57.753Z,79.30
2018-09-30T17:02:26.822Z,80.10
2018-09-30T17:04:55.794Z,79.80
2018-09-30T17:07:25.028Z,80.70
2018-09-30T17:09:53.970Z,80.60
2018-09-30T17:12:22.940Z,80.70
2018-09-30T17:14:51.917Z,81.00
2018-09-30T17:17:20.921Z,80.70
2018-09-30T17:19:49.931Z,81.20
2018-09-30T17:22:18.998Z,82.10
2018-09-30T17:24:47.971Z,83.30
2018-09-30T17:27:16.927Z,84.50
2018-09-30T17:29:45.919Z,86.80
2018-09-30T17:32:14.870Z,87.00
2018-09-30T17:34:44.005Z,86.90
2018-09-30T17:37:12.953Z,87.60
2018-09-30T17:39:41.945Z,87.40
2018-09-30T17:44:48.052Z,88.10
2018-09-30T17:47:17.009Z,89.20
2018-09-30T17:49:46.092Z,89.60
2018-09-30T17:52:15.105Z,90.00
2018-09-30T17:54:44.303Z,90.50
2018-09-30T17:57:13.297Z,90.80
2018-09-30T17:59:42.249Z,90.50
2018-09-30T18:02:11.298Z,90.70
2018-09-30T18:04:40.413Z,91.10
2018-09-30T18:07:09.390Z,91.20
2018-09-30T18:09:38.438Z,91.90
2018-09-30T18:12:07.569Z,91.70
2018-09-30T18:14:36.494Z,92.50
2018-09-30T18:17:05.462Z,92.90
2018-09-30T18:19:34.450Z,93.40
2018-09-30T18:22:03.659Z,93.50
2018-09-30T18:24:32.799Z,93.80
2018-09-30T18:27:01.883Z,94.80
2018-09-30T18:29:30.945Z,94.90
2018-09-30T18:31:59.910Z,95.70
2018-09-30T18:34:28.886Z,94.60
2018-09-30T18:36:57.870Z,94.90
2018-09-30T18:39:26.881Z,95.00
2018-09-30T18:41:55.851Z,95.10
2018-09-30T18:44:24.840Z,95.60
2018-09-30T18:46:53.823Z,96.10
2018-09-30T18:49:22.824Z,96.20
2018-09-30T18:51:51.831Z,96.40
2018-09-30T18:54:20.814Z,97.00
2018-09-30T18:56:49.775Z,97.70
2018-09-30T18:59:18.773Z,98.00
2018-09-30T19:01:47.781Z,98.00
2018-09-30T19:04:16.791Z,97.80
2018-09-30T19:06:46.684Z,97.20
2018-09-30T19:09:15.642Z,97.60
2018-09-30T19:11:44.734Z,97.70
2018-09-30T19:14:13.726Z,97.90
2018-09-30T19:16:42.715Z,97.90
2018-09-30T19:19:11.801Z,98.10
2018-09-30T19:21:42.677Z,97.90
2018-09-30T19:24:11.663Z,98.10
2018-09-30T19:26:40.899Z,98.20
2018-09-30T19:29:09.857Z,98.50
2018-09-30T19:31:38.924Z,98.40
2018-09-30T19:34:07.942Z,98.60
2018-09-30T19:36:36.999Z,98.80
2018-09-30T19:39:08.358Z,98.80
2018-09-30T19:41:37.730Z,98.30
2018-09-30T19:44:07.260Z,98.70
2018-09-30T19:46:36.454Z,98.70
2018-09-30T19:49:05.473Z,99.00
2018-09-30T19:51:34.447Z,99.20
2018-09-30T19:54:03.515Z,99.50
2018-09-30T19:56:32.789Z,99.40
2018-09-30T19:59:01.796Z,99.90
2018-09-30T20:01:30.804Z,99.90
2018-09-30T20:03:59.777Z,99.90
2018-09-30T20:06:28.935Z,99.90
2018-09-30T20:08:58.244Z,99.90
2018-09-30T20:11:27.215Z,99.90
2018-09-30T20:13:56.264Z,99.90
2018-09-30T20:16:25.247Z,99.90
2018-09-30T20:18:54.511Z,99.90
2018-09-30T20:21:23.551Z,99.90
2018-09-30T20:23:52.583Z,99.90
2018-09-30T20:26:21.561Z,99.90
2018-09-30T20:28:50.683Z,99.90
2018-09-30T20:31:19.658Z,99.90
2018-09-30T20:33:48.806Z,99.90
2018-09-30T20:36:17.754Z,99.90
2018-09-30T20:38:46.821Z,99.90
2018-09-30T20:41:15.805Z,99.90
2018-09-30T20:43:45.784Z,99.90
2018-09-30T20:46:15.002Z,99.90
2018-09-30T20:48:44.208Z,99.90
2018-09-30T20:51:13.170Z,99.90
2018-09-30T20:53:42.204Z,99.90
2018-09-30T20:56:11.185Z,99.90
2018-09-30T20:58:40.242Z,99.90
2018-09-30T21:01:10.559Z,99.90
2018-09-30T21:03:39.563Z,99.90
2018-09-30T21:06:13.761Z,99.90
2018-09-30T21:08:43.665Z,99.90
2018-09-30T21:11:12.744Z,99.90
2018-09-30T21:13:41.854Z,99.90
2018-09-30T21:16:10.906Z,99.90
2018-09-30T21:18:40.080Z,99.90
2018-09-30T21:21:09.235Z,99.90
2018-09-30T21:23:38.226Z,99.90
2018-09-30T21:26:07.318Z,99.90
2018-09-30T21:28:36.354Z,99.90
2018-09-30T21:31:05.555Z,99.90
2018-09-30T21:33:34.645Z,99.90
2018-09-30T21:36:03.618Z,99.90
2018-09-30T21:38:32.656Z,99.90
2018-09-30T21:41:01.819Z,99.90
2018-09-30T21:43:30.827Z,99.90
2018-09-30T21:45:59.838Z,99.90
2018-09-30T21:48:28.851Z,99.90
2018-09-30T21:50:57.944Z,99.90
2018-09-30T21:53:26.953Z,99.90
2018-09-30T21:55:55.985Z,99.90
2018-09-30T21:58:25.431Z,99.90
2018-09-30T22:00:59.382Z,99.90
2018-09-30T22:03:28.706Z,99.90
2018-09-30T22:05:57.809Z,99.90
2018-09-30T22:08:27.018Z,99.90
2018-09-30T22:10:56.077Z,99.90
2018-09-30T22:13:25.078Z,99.90
2018-09-30T22:15:54.066Z,99.90
2018-09-30T22:18:23.045Z,99.90
2018-09-30T22:20:51.985Z,99.90
2018-09-30T22:23:21.052Z,99.90
2018-09-30T22:25:50.100Z,99.90
2018-09-30T22:28:19.139Z,99.90
2018-09-30T22:30:48.141Z,99.90
2018-09-30T22:33:17.111Z,99.90
2018-09-30T22:35:46.113Z,99.90
2018-09-30T22:38:15.090Z,99.90
2018-09-30T22:40:44.048Z,99.90
2018-09-30T22:43:12.992Z,99.90
2018-09-30T22:45:42.007Z,99.90
2018-09-30T22:48:11.049Z,99.90
2018-09-30T22:50:40.019Z,99.90
2018-09-30T22:53:09.089Z,99.90
2018-09-30T22:55:38.066Z,99.90
2018-09-30T22:58:07.042Z,99.90
2018-09-30T23:00:36.064Z,99.90
2018-09-30T23:03:05.058Z,99.90
2018-09-30T23:05:34.058Z,99.90
2018-09-30T23:08:03.086Z,99.90
2018-09-30T23:10:32.303Z,99.90
2018-09-30T23:13:01.309Z,99.90
2018-09-30T23:15:30.481Z,99.90
2018-09-30T23:17:59.489Z,99.90
2018-09-30T23:20:28.716Z,99.90
2018-09-30T23:22:58.326Z,99.90
2018-09-30T23:25:27.292Z,99.90
2018-09-30T23:27:56.249Z,99.90
2018-09-30T23:30:25.268Z,99.90
2018-09-30T23:32:54.244Z,99.90
2018-09-30T23:35:23.243Z,99.90
2018-09-30T23:37:52.946Z,99.90
2018-09-30T23:40:21.938Z,99.90
2018-09-30T23:42:50.938Z,99.90
2018-09-30T23:45:19.906Z,99.90
2018-09-30T23:47:48.917Z,99.90
2018-09-30T23:50:17.879Z,99.90
2018-09-30T23:52:46.861Z,99.90
2018-09-30T23:55:15.886Z,99.90
2018-09-30T23:57:44.924Z,99.90
